sensor_id;sensor_type;location;lat;lon;timestamp;pressure;altitude;pressure_sealevel;temperature;humidity
50774;BME280;36745;48.544;8.918;2023-02-07T00:00:14;99097.03;;;-0.41;87.58
50774;BME280;36745;48.544;8.918;2023-02-07T00:03:35;99105.22;;;-0.50;87.73
50774;BME280;36745;48.544;8.918;2023-02-07T00:06:54;99100.94;;;-0.68;86.45
50774;BME280;36745;48.544;8.918;2023-02-07T00:10:15;99091.91;;;-0.72;87.77
50774;BME280;36745;48.544;8.918;2023-02-07T00:13:35;99100.47;;;-0.70;87.79
50774;BME280;36745;48.544;8.918;2023-02-07T00:16:55;99101.13;;;-0.73;87.93
50774;BME280;36745;48.544;8.918;2023-02-07T00:20:15;99106.41;;;-0.76;87.63
50774;BME280;36745;48.544;8.918;2023-02-07T00:23:36;99106.88;;;-0.83;88.43
50774;BME280;36745;48.544;8.918;2023-02-07T00:26:55;99102.41;;;-0.79;87.38
50774;BME280;36745;48.544;8.918;2023-02-07T00:30:15;99091.59;;;-0.96;88.08
50774;BME280;36745;48.544;8.918;2023-02-07T00:33:36;99090.50;;;-0.95;87.04
50774;BME280;36745;48.544;8.918;2023-02-07T00:36:56;99094.50;;;-1.18;86.60
50774;BME280;36745;48.544;8.918;2023-02-07T00:40:17;99084.50;;;-1.27;86.04
50774;BME280;36745;48.544;8.918;2023-02-07T00:43:36;99085.63;;;-1.36;86.18
50774;BME280;36745;48.544;8.918;2023-02-07T00:46:56;99074.78;;;-1.45;86.21
50774;BME280;36745;48.544;8.918;2023-02-07T00:50:16;99081.47;;;-1.51;85.27
50774;BME280;36745;48.544;8.918;2023-02-07T00:53:36;99073.34;;;-1.51;85.58
50774;BME280;36745;48.544;8.918;2023-02-07T00:56:58;99077.03;;;-1.64;85.23
50774;BME280;36745;48.544;8.918;2023-02-07T01:00:17;99075.09;;;-1.55;85.65
50774;BME280;36745;48.544;8.918;2023-02-07T01:03:37;99086.56;;;-1.58;85.30
50774;BME280;36745;48.544;8.918;2023-02-07T01:06:57;99065.88;;;-1.71;85.47
50774;BME280;36745;48.544;8.918;2023-02-07T01:10:17;99075.59;;;-1.79;84.71
50774;BME280;36745;48.544;8.918;2023-02-07T01:13:37;99075.25;;;-1.86;85.18
50774;BME280;36745;48.544;8.918;2023-02-07T01:16:57;99067.75;;;-1.89;85.05
50774;BME280;36745;48.544;8.918;2023-02-07T01:20:17;99074.44;;;-1.86;85.19
50774;BME280;36745;48.544;8.918;2023-02-07T01:23:37;99080.16;;;-1.88;86.00
50774;BME280;36745;48.544;8.918;2023-02-07T01:26:56;99076.00;;;-2.02;86.13
50774;BME280;36745;48.544;8.918;2023-02-07T01:30:16;99081.06;;;-2.09;86.33
50774;BME280;36745;48.544;8.918;2023-02-07T01:33:36;99075.09;;;-1.89;86.36
50774;BME280;36745;48.544;8.918;2023-02-07T01:36:56;99077.63;;;-1.67;85.44
50774;BME280;36745;48.544;8.918;2023-02-07T01:40:16;99077.00;;;-1.81;85.43
50774;BME280;36745;48.544;8.918;2023-02-07T01:47:32;99036.91;;;-1.96;85.94
50774;BME280;36745;48.544;8.918;2023-02-07T01:50:54;99026.72;;;-1.99;86.12
50774;BME280;36745;48.544;8.918;2023-02-07T01:54:16;99040.53;;;-2.09;85.99
50774;BME280;36745;48.544;8.918;2023-02-07T01:57:37;99062.50;;;-2.02;86.01
50774;BME280;36745;48.544;8.918;2023-02-07T02:01:02;99067.75;;;-1.97;85.68
50774;BME280;36745;48.544;8.918;2023-02-07T02:04:25;99072.31;;;-2.15;85.97
50774;BME280;36745;48.544;8.918;2023-02-07T02:07:44;99074.72;;;-2.05;85.87
50774;BME280;36745;48.544;8.918;2023-02-07T02:26:55;99114.28;;;-2.18;86.71
50774;BME280;36745;48.544;8.918;2023-02-07T02:30:38;99116.63;;;-2.25;86.55
50774;BME280;36745;48.544;8.918;2023-02-07T02:38:01;99116.47;;;-2.20;86.94
50774;BME280;36745;48.544;8.918;2023-02-07T02:41:36;99122.25;;;-2.04;86.45
50774;BME280;36745;48.544;8.918;2023-02-07T02:45:00;99115.63;;;-1.89;86.68
50774;BME280;36745;48.544;8.918;2023-02-07T02:48:20;99109.88;;;-1.96;85.26
50774;BME280;36745;48.544;8.918;2023-02-07T02:51:40;99107.63;;;-2.03;84.69
50774;BME280;36745;48.544;8.918;2023-02-07T02:55:00;99116.63;;;-2.25;85.68
50774;BME280;36745;48.544;8.918;2023-02-07T03:06:14;99100.69;;;-2.35;85.06
50774;BME280;36745;48.544;8.918;2023-02-07T03:13:32;99118.41;;;-2.51;85.72
50774;BME280;36745;48.544;8.918;2023-02-07T03:17:13;99115.06;;;-2.57;85.34
50774;BME280;36745;48.544;8.918;2023-02-07T03:20:44;99127.00;;;-2.49;85.43
50774;BME280;36745;48.544;8.918;2023-02-07T03:24:12;99124.69;;;-2.64;84.93
50774;BME280;36745;48.544;8.918;2023-02-07T03:27:33;99122.06;;;-2.56;85.14
50774;BME280;36745;48.544;8.918;2023-02-07T03:30:54;99118.97;;;-2.71;84.84
50774;BME280;36745;48.544;8.918;2023-02-07T03:34:19;99127.19;;;-2.76;85.11
50774;BME280;36745;48.544;8.918;2023-02-07T03:37:45;99136.13;;;-2.67;85.15
50774;BME280;36745;48.544;8.918;2023-02-07T03:41:12;99134.34;;;-2.72;85.06
50774;BME280;36745;48.544;8.918;2023-02-07T03:44:35;99139.59;;;-2.75;84.72
50774;BME280;36745;48.544;8.918;2023-02-07T03:47:55;99142.03;;;-2.87;84.88
50774;BME280;36745;48.544;8.918;2023-02-07T03:51:15;99121.84;;;-2.90;85.18
50774;BME280;36745;48.544;8.918;2023-02-07T03:54:35;99125.22;;;-2.84;84.99
50774;BME280;36745;48.544;8.918;2023-02-07T03:57:57;99127.53;;;-2.69;84.77
50774;BME280;36745;48.544;8.918;2023-02-07T04:01:17;99139.22;;;-2.82;84.16
50774;BME280;36745;48.544;8.918;2023-02-07T04:04:37;99133.19;;;-2.79;84.81
50774;BME280;36745;48.544;8.918;2023-02-07T04:07:57;99135.31;;;-2.68;84.72
50774;BME280;36745;48.544;8.918;2023-02-07T04:11:17;99133.66;;;-2.55;83.96
50774;BME280;36745;48.544;8.918;2023-02-07T04:14:37;99140.56;;;-2.71;83.81
50774;BME280;36745;48.544;8.918;2023-02-07T04:17:56;99132.34;;;-2.88;84.18
50774;BME280;36745;48.544;8.918;2023-02-07T04:21:16;99137.75;;;-2.88;84.22
50774;BME280;36745;48.544;8.918;2023-02-07T04:24:36;99135.28;;;-2.99;84.40
50774;BME280;36745;48.544;8.918;2023-02-07T04:27:56;99130.63;;;-3.07;84.79
50774;BME280;36745;48.544;8.918;2023-02-07T04:31:16;99137.31;;;-3.04;84.42
50774;BME280;36745;48.544;8.918;2023-02-07T04:34:35;99133.06;;;-3.41;84.91
50774;BME280;36745;48.544;8.918;2023-02-07T04:37:55;99112.72;;;-3.47;85.61
50774;BME280;36745;48.544;8.918;2023-02-07T04:41:15;99115.19;;;-3.51;85.67
50774;BME280;36745;48.544;8.918;2023-02-07T04:44:35;99113.41;;;-3.55;85.72
50774;BME280;36745;48.544;8.918;2023-02-07T04:47:55;99115.75;;;-3.62;86.31
50774;BME280;36745;48.544;8.918;2023-02-07T04:51:18;99111.38;;;-3.72;86.54
50774;BME280;36745;48.544;8.918;2023-02-07T04:54:49;99107.81;;;-3.81;86.61
50774;BME280;36745;48.544;8.918;2023-02-07T04:58:09;99128.66;;;-3.87;86.32
50774;BME280;36745;48.544;8.918;2023-02-07T05:01:29;99129.59;;;-4.05;87.41
50774;BME280;36745;48.544;8.918;2023-02-07T05:04:48;99130.97;;;-4.07;87.54
50774;BME280;36745;48.544;8.918;2023-02-07T05:08:09;99141.56;;;-4.11;88.08
50774;BME280;36745;48.544;8.918;2023-02-07T05:11:29;99137.38;;;-4.17;88.31
50774;BME280;36745;48.544;8.918;2023-02-07T05:14:48;99131.38;;;-4.14;88.51
50774;BME280;36745;48.544;8.918;2023-02-07T05:18:08;99135.88;;;-4.23;88.78
50774;BME280;36745;48.544;8.918;2023-02-07T05:21:28;99128.31;;;-4.21;89.52
50774;BME280;36745;48.544;8.918;2023-02-07T05:24:48;99128.22;;;-4.16;89.88
50774;BME280;36745;48.544;8.918;2023-02-07T05:28:08;99132.19;;;-4.27;89.24
50774;BME280;36745;48.544;8.918;2023-02-07T05:31:28;99124.00;;;-4.36;89.47
50774;BME280;36745;48.544;8.918;2023-02-07T05:35:07;99145.16;;;-4.43;89.92
50774;BME280;36745;48.544;8.918;2023-02-07T05:38:27;99141.25;;;-4.50;89.64
50774;BME280;36745;48.544;8.918;2023-02-07T05:41:46;99130.38;;;-4.45;90.20
50774;BME280;36745;48.544;8.918;2023-02-07T05:45:07;99133.78;;;-4.53;90.44
50774;BME280;36745;48.544;8.918;2023-02-07T05:48:27;99131.47;;;-4.46;90.75
50774;BME280;36745;48.544;8.918;2023-02-07T05:51:46;99149.69;;;-4.57;90.42
50774;BME280;36745;48.544;8.918;2023-02-07T05:55:07;99158.56;;;-4.56;90.60
50774;BME280;36745;48.544;8.918;2023-02-07T05:58:27;99150.28;;;-4.60;91.16
50774;BME280;36745;48.544;8.918;2023-02-07T06:01:47;99157.34;;;-4.64;90.57
50774;BME280;36745;48.544;8.918;2023-02-07T06:05:08;99150.84;;;-4.77;90.52
50774;BME280;36745;48.544;8.918;2023-02-07T06:08:29;99151.28;;;-4.70;90.43
50774;BME280;36745;48.544;8.918;2023-02-07T06:11:48;99152.03;;;-4.83;90.66
50774;BME280;36745;48.544;8.918;2023-02-07T06:15:08;99148.81;;;-4.85;91.55
50774;BME280;36745;48.544;8.918;2023-02-07T06:18:28;99147.81;;;-4.89;91.84
50774;BME280;36745;48.544;8.918;2023-02-07T06:21:48;99140.47;;;-4.83;91.61
50774;BME280;36745;48.544;8.918;2023-02-07T06:25:08;99143.72;;;-5.00;92.14
50774;BME280;36745;48.544;8.918;2023-02-07T06:28:33;99132.66;;;-4.98;92.21
50774;BME280;36745;48.544;8.918;2023-02-07T06:31:53;99128.09;;;-4.98;91.84
50774;BME280;36745;48.544;8.918;2023-02-07T06:35:13;99122.88;;;-5.08;92.47
50774;BME280;36745;48.544;8.918;2023-02-07T06:38:32;99128.09;;;-4.98;92.50
50774;BME280;36745;48.544;8.918;2023-02-07T06:41:52;99121.28;;;-5.09;92.00
50774;BME280;36745;48.544;8.918;2023-02-07T06:45:12;99119.69;;;-4.96;92.42
50774;BME280;36745;48.544;8.918;2023-02-07T06:48:32;99130.88;;;-4.89;91.28
50774;BME280;36745;48.544;8.918;2023-02-07T06:51:51;99132.53;;;-5.07;92.39
50774;BME280;36745;48.544;8.918;2023-02-07T06:55:11;99135.81;;;-5.10;92.93
50774;BME280;36745;48.544;8.918;2023-02-07T06:58:31;99152.38;;;-5.03;93.68
50774;BME280;36745;48.544;8.918;2023-02-07T07:01:52;99157.31;;;-4.91;93.35
50774;BME280;36745;48.544;8.918;2023-02-07T07:05:12;99155.47;;;-4.96;93.71
50774;BME280;36745;48.544;8.918;2023-02-07T07:08:32;99153.38;;;-4.99;93.26
50774;BME280;36745;48.544;8.918;2023-02-07T07:11:52;99163.53;;;-4.96;93.28
50774;BME280;36745;48.544;8.918;2023-02-07T07:15:12;99164.06;;;-4.94;93.29
50774;BME280;36745;48.544;8.918;2023-02-07T07:18:32;99171.31;;;-4.94;93.44
50774;BME280;36745;48.544;8.918;2023-02-07T07:21:51;99167.75;;;-4.90;93.90
50774;BME280;36745;48.544;8.918;2023-02-07T07:25:13;99167.09;;;-4.82;94.19
50774;BME280;36745;48.544;8.918;2023-02-07T07:28:33;99158.13;;;-4.77;93.93
50774;BME280;36745;48.544;8.918;2023-02-07T07:31:53;99171.31;;;-4.62;93.69
50774;BME280;36745;48.544;8.918;2023-02-07T07:35:12;99181.69;;;-4.55;94.01
50774;BME280;36745;48.544;8.918;2023-02-07T07:38:32;99181.81;;;-4.47;93.54
50774;BME280;36745;48.544;8.918;2023-02-07T07:41:52;99174.66;;;-4.24;93.92
50774;BME280;36745;48.544;8.918;2023-02-07T07:45:12;99189.72;;;-4.23;93.38
50774;BME280;36745;48.544;8.918;2023-02-07T07:48:32;99184.66;;;-4.11;93.02
50774;BME280;36745;48.544;8.918;2023-02-07T07:51:52;99176.84;;;-3.99;93.28
50774;BME280;36745;48.544;8.918;2023-02-07T07:55:11;99176.06;;;-3.86;92.75
50774;BME280;36745;48.544;8.918;2023-02-07T07:58:31;99170.69;;;-3.86;93.26
50774;BME280;36745;48.544;8.918;2023-02-07T08:01:51;99165.19;;;-3.81;93.34
50774;BME280;36745;48.544;8.918;2023-02-07T08:05:11;99165.69;;;-3.78;93.82
50774;BME280;36745;48.544;8.918;2023-02-07T08:08:31;99155.22;;;-3.44;94.44
50774;BME280;36745;48.544;8.918;2023-02-07T08:11:50;99154.97;;;-3.20;93.74
50774;BME280;36745;48.544;8.918;2023-02-07T08:15:10;99166.72;;;-3.16;93.62
50774;BME280;36745;48.544;8.918;2023-02-07T08:18:32;99157.91;;;-3.08;93.52
50774;BME280;36745;48.544;8.918;2023-02-07T08:21:51;99163.19;;;-2.81;93.13
50774;BME280;36745;48.544;8.918;2023-02-07T08:25:11;99150.94;;;-2.56;92.98
50774;BME280;36745;48.544;8.918;2023-02-07T08:28:31;99170.28;;;-2.32;92.57
50774;BME280;36745;48.544;8.918;2023-02-07T08:31:51;99168.31;;;-2.18;91.76
50774;BME280;36745;48.544;8.918;2023-02-07T08:35:11;99182.50;;;-2.03;89.71
50774;BME280;36745;48.544;8.918;2023-02-07T08:38:31;99180.44;;;-1.98;89.03
50774;BME280;36745;48.544;8.918;2023-02-07T08:41:51;99188.69;;;-2.12;88.35
50774;BME280;36745;48.544;8.918;2023-02-07T08:45:11;99192.41;;;-1.90;88.33
50774;BME280;36745;48.544;8.918;2023-02-07T08:48:30;99190.59;;;-1.64;88.02
50774;BME280;36745;48.544;8.918;2023-02-07T08:51:50;99197.25;;;-1.61;86.37
50774;BME280;36745;48.544;8.918;2023-02-07T08:55:11;99206.81;;;-1.64;87.17
50774;BME280;36745;48.544;8.918;2023-02-07T08:58:31;99199.78;;;-1.65;85.19
50774;BME280;36745;48.544;8.918;2023-02-07T09:01:50;99203.28;;;-1.73;83.99
50774;BME280;36745;48.544;8.918;2023-02-07T09:05:10;99198.03;;;-1.70;83.58
50774;BME280;36745;48.544;8.918;2023-02-07T09:08:30;99204.75;;;-1.58;83.44
50774;BME280;36745;48.544;8.918;2023-02-07T09:11:50;99206.84;;;-1.47;82.79
50774;BME280;36745;48.544;8.918;2023-02-07T09:15:10;99210.03;;;-1.45;82.62
50774;BME280;36745;48.544;8.918;2023-02-07T09:18:30;99219.94;;;-1.32;82.12
50774;BME280;36745;48.544;8.918;2023-02-07T09:21:50;99225.94;;;-1.35;80.46
50774;BME280;36745;48.544;8.918;2023-02-07T09:25:09;99226.94;;;-1.31;81.43
50774;BME280;36745;48.544;8.918;2023-02-07T09:28:29;99203.84;;;-1.28;80.98
50774;BME280;36745;48.544;8.918;2023-02-07T09:31:49;99197.63;;;-1.29;80.11
50774;BME280;36745;48.544;8.918;2023-02-07T09:35:09;99190.94;;;-1.40;79.31
50774;BME280;36745;48.544;8.918;2023-02-07T09:38:29;99182.06;;;-1.14;80.78
50774;BME280;36745;48.544;8.918;2023-02-07T09:45:56;99197.00;;;-0.91;80.14
50774;BME280;36745;48.544;8.918;2023-02-07T09:53:23;99210.25;;;-0.72;79.98
50774;BME280;36745;48.544;8.918;2023-02-07T09:56:43;99214.06;;;-0.65;78.52
50774;BME280;36745;48.544;8.918;2023-02-07T10:03:45;99227.22;;;-0.37;79.10
50774;BME280;36745;48.544;8.918;2023-02-07T10:07:10;99230.09;;;-0.43;77.86
50774;BME280;36745;48.544;8.918;2023-02-07T10:10:41;99222.25;;;-0.27;76.67
50774;BME280;36745;48.544;8.918;2023-02-07T10:18:20;99235.50;;;-0.25;76.17
50774;BME280;36745;48.544;8.918;2023-02-07T10:29:02;99225.38;;;0.01;75.04
50774;BME280;36745;48.544;8.918;2023-02-07T10:32:31;99227.41;;;0.21;75.35
50774;BME280;36745;48.544;8.918;2023-02-07T10:35:52;99227.47;;;0.42;74.31
50774;BME280;36745;48.544;8.918;2023-02-07T10:42:54;99221.75;;;0.64;74.11
50774;BME280;36745;48.544;8.918;2023-02-07T10:46:17;99213.75;;;0.68;73.84
50774;BME280;36745;48.544;8.918;2023-02-07T10:49:38;99227.41;;;0.80;73.92
50774;BME280;36745;48.544;8.918;2023-02-07T10:52:59;99225.69;;;0.96;73.17
50774;BME280;36745;48.544;8.918;2023-02-07T10:56:22;99230.72;;;1.06;74.41
50774;BME280;36745;48.544;8.918;2023-02-07T10:59:43;99220.25;;;1.17;73.28
50774;BME280;36745;48.544;8.918;2023-02-07T11:03:12;99212.72;;;1.22;73.32
50774;BME280;36745;48.544;8.918;2023-02-07T11:06:33;99212.72;;;1.22;72.10
50774;BME280;36745;48.544;8.918;2023-02-07T11:10:20;99211.78;;;1.18;72.26
50774;BME280;36745;48.544;8.918;2023-02-07T11:13:48;99214.50;;;1.18;69.95
50774;BME280;36745;48.544;8.918;2023-02-07T11:17:18;99211.63;;;1.36;72.38
50774;BME280;36745;48.544;8.918;2023-02-07T11:20:40;99224.72;;;1.54;71.73
50774;BME280;36745;48.544;8.918;2023-02-07T11:24:15;99234.16;;;1.15;68.06
50774;BME280;36745;48.544;8.918;2023-02-07T11:27:39;99221.06;;;0.97;68.20
50774;BME280;36745;48.544;8.918;2023-02-07T11:31:02;99222.38;;;1.11;66.40
50774;BME280;36745;48.544;8.918;2023-02-07T11:37:57;99206.81;;;1.53;66.15
50774;BME280;36745;48.544;8.918;2023-02-07T11:41:21;99207.38;;;1.47;66.34
50774;BME280;36745;48.544;8.918;2023-02-07T11:44:44;99203.56;;;1.60;66.64
50774;BME280;36745;48.544;8.918;2023-02-07T11:48:04;99211.13;;;1.87;66.38
50774;BME280;36745;48.544;8.918;2023-02-07T11:51:25;99207.56;;;1.75;65.38
50774;BME280;36745;48.544;8.918;2023-02-07T11:54:55;99211.63;;;2.26;65.05
50774;BME280;36745;48.544;8.918;2023-02-07T11:58:28;99209.44;;;4.19;67.77
50774;BME280;36745;48.544;8.918;2023-02-07T12:01:52;99215.59;;;5.94;66.93
50774;BME280;36745;48.544;8.918;2023-02-07T12:05:19;99217.28;;;6.97;64.32
50774;BME280;36745;48.544;8.918;2023-02-07T12:08:40;99211.66;;;7.46;63.25
50774;BME280;36745;48.544;8.918;2023-02-07T12:12:02;99204.41;;;7.97;62.33
50774;BME280;36745;48.544;8.918;2023-02-07T12:15:38;99206.13;;;8.13;59.64
50774;BME280;36745;48.544;8.918;2023-02-07T12:19:25;99206.56;;;8.15;59.74
50774;BME280;36745;48.544;8.918;2023-02-07T12:22:52;99211.84;;;7.60;56.01
50774;BME280;36745;48.544;8.918;2023-02-07T12:26:27;99208.22;;;7.86;57.73
50774;BME280;36745;48.544;8.918;2023-02-07T12:30:05;99208.72;;;6.49;53.88
50774;BME280;36745;48.544;8.918;2023-02-07T12:33:49;99202.25;;;7.13;54.89
50774;BME280;36745;48.544;8.918;2023-02-07T12:37:24;99199.41;;;7.06;53.60
50774;BME280;36745;48.544;8.918;2023-02-07T12:40:53;99197.34;;;7.96;53.64
50774;BME280;36745;48.544;8.918;2023-02-07T12:44:25;99192.06;;;7.77;51.76
50774;BME280;36745;48.544;8.918;2023-02-07T12:48:14;99196.53;;;7.59;52.60
50774;BME280;36745;48.544;8.918;2023-02-07T13:06:10;99170.56;;;8.74;49.74
50774;BME280;36745;48.544;8.918;2023-02-07T13:09:58;99167.50;;;8.90;49.12
50774;BME280;36745;48.544;8.918;2023-02-07T13:13:37;99162.56;;;9.24;48.52
50774;BME280;36745;48.544;8.918;2023-02-07T13:20:46;99170.38;;;8.50;47.39
50774;BME280;36745;48.544;8.918;2023-02-07T13:24:13;99150.19;;;7.87;47.04
50774;BME280;36745;48.544;8.918;2023-02-07T13:27:35;99154.66;;;8.50;45.64
50774;BME280;36745;48.544;8.918;2023-02-07T13:30:56;99149.22;;;8.57;45.55
50774;BME280;36745;48.544;8.918;2023-02-07T13:34:19;99149.63;;;8.12;45.08
50774;BME280;36745;48.544;8.918;2023-02-07T13:45:47;99150.31;;;8.01;45.43
50774;BME280;36745;48.544;8.918;2023-02-07T13:49:21;99159.66;;;8.34;45.23
50774;BME280;36745;48.544;8.918;2023-02-07T13:53:09;99151.69;;;7.11;43.62
50774;BME280;36745;48.544;8.918;2023-02-07T13:56:35;99151.63;;;6.25;43.43
50774;BME280;36745;48.544;8.918;2023-02-07T14:00:18;99158.69;;;5.42;44.13
50774;BME280;36745;48.544;8.918;2023-02-07T14:03:38;99169.34;;;4.89;44.54
50774;BME280;36745;48.544;8.918;2023-02-07T14:07:03;99168.81;;;4.84;45.94
50774;BME280;36745;48.544;8.918;2023-02-07T14:24:30;99153.72;;;3.89;45.42
50774;BME280;36745;48.544;8.918;2023-02-07T14:31:22;99153.34;;;3.90;46.07
50774;BME280;36745;48.544;8.918;2023-02-07T14:35:05;99158.13;;;3.50;45.53
50774;BME280;36745;48.544;8.918;2023-02-07T14:42:38;99153.34;;;3.31;47.01
50774;BME280;36745;48.544;8.918;2023-02-07T14:46:05;99147.38;;;3.41;47.05
50774;BME280;36745;48.544;8.918;2023-02-07T14:49:47;99147.59;;;3.20;46.91
50774;BME280;36745;48.544;8.918;2023-02-07T14:53:12;99155.06;;;2.95;47.33
50774;BME280;36745;48.544;8.918;2023-02-07T15:03:36;99152.53;;;3.03;48.12
50774;BME280;36745;48.544;8.918;2023-02-07T15:06:57;99153.94;;;2.97;48.21
50774;BME280;36745;48.544;8.918;2023-02-07T15:10:25;99170.91;;;3.06;48.15
50774;BME280;36745;48.544;8.918;2023-02-07T15:13:48;99180.38;;;2.96;47.78
50774;BME280;36745;48.544;8.918;2023-02-07T15:17:08;99170.53;;;2.79;48.26
50774;BME280;36745;48.544;8.918;2023-02-07T15:20:33;99174.16;;;2.71;48.69
50774;BME280;36745;48.544;8.918;2023-02-07T15:23:57;99170.31;;;2.72;48.88
50774;BME280;36745;48.544;8.918;2023-02-07T15:27:23;99178.50;;;2.60;49.41
50774;BME280;36745;48.544;8.918;2023-02-07T15:34:19;99186.22;;;2.58;49.36
50774;BME280;36745;48.544;8.918;2023-02-07T15:37:40;99174.66;;;2.49;49.14
50774;BME280;36745;48.544;8.918;2023-02-07T15:41:00;99170.78;;;2.38;49.43
50774;BME280;36745;48.544;8.918;2023-02-07T15:47:55;99176.25;;;2.38;49.32
50774;BME280;36745;48.544;8.918;2023-02-07T15:51:17;99173.97;;;2.40;49.12
50774;BME280;36745;48.544;8.918;2023-02-07T15:54:42;99178.53;;;2.36;49.31
50774;BME280;36745;48.544;8.918;2023-02-07T15:58:03;99180.34;;;2.20;49.00
50774;BME280;36745;48.544;8.918;2023-02-07T16:01:28;99183.72;;;2.17;49.76
50774;BME280;36745;48.544;8.918;2023-02-07T16:04:48;99178.75;;;1.94;49.90
50774;BME280;36745;48.544;8.918;2023-02-07T16:11:49;99179.16;;;1.84;50.20
50774;BME280;36745;48.544;8.918;2023-02-07T16:15:22;99180.16;;;1.80;50.82
50774;BME280;36745;48.544;8.918;2023-02-07T16:18:44;99183.78;;;1.72;50.77
50774;BME280;36745;48.544;8.918;2023-02-07T16:22:12;99183.16;;;1.54;50.26
50774;BME280;36745;48.544;8.918;2023-02-07T16:25:34;99183.59;;;1.44;50.96
50774;BME280;36745;48.544;8.918;2023-02-07T16:28:55;99197.44;;;1.51;50.81
50774;BME280;36745;48.544;8.918;2023-02-07T16:32:14;99193.13;;;1.50;50.72
50774;BME280;36745;48.544;8.918;2023-02-07T16:35:35;99192.38;;;1.29;51.05
50774;BME280;36745;48.544;8.918;2023-02-07T16:38:55;99206.88;;;1.33;50.83
50774;BME280;36745;48.544;8.918;2023-02-07T16:42:15;99209.00;;;1.27;50.61
50774;BME280;36745;48.544;8.918;2023-02-07T16:45:36;99217.59;;;1.08;50.99
50774;BME280;36745;48.544;8.918;2023-02-07T16:48:56;99217.00;;;1.03;51.27
50774;BME280;36745;48.544;8.918;2023-02-07T16:52:16;99222.50;;;0.94;51.33
50774;BME280;36745;48.544;8.918;2023-02-07T16:55:37;99223.03;;;1.08;51.29
50774;BME280;36745;48.544;8.918;2023-02-07T16:58:57;99227.66;;;0.87;51.51
50774;BME280;36745;48.544;8.918;2023-02-07T17:02:17;99228.25;;;0.72;52.00
50774;BME280;36745;48.544;8.918;2023-02-07T17:06:04;99231.94;;;0.67;52.34
50774;BME280;36745;48.544;8.918;2023-02-07T17:09:24;99228.44;;;0.67;52.83
50774;BME280;36745;48.544;8.918;2023-02-07T17:12:45;99242.56;;;0.52;53.13
50774;BME280;36745;48.544;8.918;2023-02-07T17:16:05;99238.25;;;0.51;52.47
50774;BME280;36745;48.544;8.918;2023-02-07T17:19:27;99229.56;;;0.36;52.80
50774;BME280;36745;48.544;8.918;2023-02-07T17:22:47;99235.63;;;0.33;52.99
50774;BME280;36745;48.544;8.918;2023-02-07T17:26:37;99237.88;;;0.31;52.92
50774;BME280;36745;48.544;8.918;2023-02-07T17:29:57;99230.88;;;0.22;52.64
50774;BME280;36745;48.544;8.918;2023-02-07T17:33:18;99231.50;;;0.27;52.49
50774;BME280;36745;48.544;8.918;2023-02-07T17:36:48;99225.81;;;0.20;52.60
50774;BME280;36745;48.544;8.918;2023-02-07T17:43:41;99232.38;;;0.11;52.67
50774;BME280;36745;48.544;8.918;2023-02-07T17:47:01;99230.94;;;0.13;52.80
50774;BME280;36745;48.544;8.918;2023-02-07T17:50:28;99233.78;;;0.17;52.71
50774;BME280;36745;48.544;8.918;2023-02-07T17:53:49;99237.38;;;0.00;53.31
50774;BME280;36745;48.544;8.918;2023-02-07T17:57:12;99234.00;;;0.03;53.28
50774;BME280;36745;48.544;8.918;2023-02-07T18:00:36;99233.22;;;-0.06;53.39
50774;BME280;36745;48.544;8.918;2023-02-07T18:03:57;99236.56;;;-0.01;53.38
50774;BME280;36745;48.544;8.918;2023-02-07T18:07:17;99241.81;;;-0.04;53.20
50774;BME280;36745;48.544;8.918;2023-02-07T18:10:37;99252.84;;;-0.01;53.27
50774;BME280;36745;48.544;8.918;2023-02-07T18:13:57;99238.19;;;-0.08;53.60
50774;BME280;36745;48.544;8.918;2023-02-07T18:17:17;99242.84;;;-0.17;54.07
50774;BME280;36745;48.544;8.918;2023-02-07T18:20:36;99244.75;;;-0.26;54.30
50774;BME280;36745;48.544;8.918;2023-02-07T18:23:56;99256.56;;;-0.31;54.67
50774;BME280;36745;48.544;8.918;2023-02-07T18:27:16;99251.00;;;-0.34;54.93
50774;BME280;36745;48.544;8.918;2023-02-07T18:30:38;99254.66;;;-0.48;55.67
50774;BME280;36745;48.544;8.918;2023-02-07T18:33:57;99243.81;;;-0.48;55.88
50774;BME280;36745;48.544;8.918;2023-02-07T18:37:17;99253.72;;;-0.52;55.84
50774;BME280;36745;48.544;8.918;2023-02-07T18:40:40;99258.81;;;-0.59;56.27
50774;BME280;36745;48.544;8.918;2023-02-07T18:44:00;99259.78;;;-0.63;56.44
50774;BME280;36745;48.544;8.918;2023-02-07T18:47:21;99263.13;;;-0.83;57.30
50774;BME280;36745;48.544;8.918;2023-02-07T18:50:43;99260.09;;;-0.82;57.33
50774;BME280;36745;48.544;8.918;2023-02-07T18:54:03;99268.06;;;-0.94;58.78
50774;BME280;36745;48.544;8.918;2023-02-07T18:57:23;99264.06;;;-0.97;58.37
50774;BME280;36745;48.544;8.918;2023-02-07T19:00:43;99254.97;;;-1.09;58.44
50774;BME280;36745;48.544;8.918;2023-02-07T19:04:02;99255.91;;;-1.22;58.84
50774;BME280;36745;48.544;8.918;2023-02-07T19:07:22;99252.50;;;-1.45;59.86
50774;BME280;36745;48.544;8.918;2023-02-07T19:10:51;99260.44;;;-1.49;59.67
50774;BME280;36745;48.544;8.918;2023-02-07T19:14:14;99256.78;;;-1.53;60.20
50774;BME280;36745;48.544;8.918;2023-02-07T19:17:34;99265.66;;;-1.61;60.81
50774;BME280;36745;48.544;8.918;2023-02-07T19:20:53;99254.50;;;-1.68;61.48
50774;BME280;36745;48.544;8.918;2023-02-07T19:24:15;99262.13;;;-1.70;61.14
50774;BME280;36745;48.544;8.918;2023-02-07T19:27:36;99266.56;;;-1.74;61.49
50774;BME280;36745;48.544;8.918;2023-02-07T19:30:56;99274.44;;;-1.95;62.79
50774;BME280;36745;48.544;8.918;2023-02-07T19:34:16;99271.53;;;-1.98;62.38
50774;BME280;36745;48.544;8.918;2023-02-07T19:37:36;99262.31;;;-1.97;62.12
50774;BME280;36745;48.544;8.918;2023-02-07T19:40:56;99278.53;;;-1.97;62.66
50774;BME280;36745;48.544;8.918;2023-02-07T19:44:42;99270.84;;;-2.13;63.03
50774;BME280;36745;48.544;8.918;2023-02-07T19:48:03;99285.88;;;-2.20;63.56
50774;BME280;36745;48.544;8.918;2023-02-07T19:51:25;99282.50;;;-2.26;64.69
50774;BME280;36745;48.544;8.918;2023-02-07T19:54:50;99285.69;;;-2.24;63.88
50774;BME280;36745;48.544;8.918;2023-02-07T19:58:10;99294.19;;;-2.39;64.95
50774;BME280;36745;48.544;8.918;2023-02-07T20:01:31;99298.97;;;-2.36;64.80
50774;BME280;36745;48.544;8.918;2023-02-07T20:04:51;99297.84;;;-2.35;64.96
50774;BME280;36745;48.544;8.918;2023-02-07T20:08:12;99287.56;;;-2.33;65.12
50774;BME280;36745;48.544;8.918;2023-02-07T20:11:32;99287.81;;;-2.43;64.89
50774;BME280;36745;48.544;8.918;2023-02-07T20:14:55;99285.19;;;-2.48;65.24